Portada
METAR-TAF:

METAR-TAF

Aeroports :

Meriden-Markham Municipal Airport

Meriden, Connecticut, Estats Units d'Amèrica

latitud: 41-30-35N, longitud: 072-49-40W, altitud: 31 m

Observació

L'informe es va fer fa 53 minuts, a les 01:53 UTC
Vent 5 kt del Oest/Nord-Oest
Temperatura -3°C
Humitat 33%
Pressió 1018 hPa
Visibilitat: 16.1 km
Cel clar

METAR: KMMK 030153Z AUTO 29005KT 10SM CLR M03/M17 A3007 RMK AO2 SLP183 T10281172

Hora: 21:46 (02:46 UTC)


TAF: manca

Observacions i pronòstics meteorològics de més de 4000 aeroports (METAR i TAF).

Les estacions disponibles són els punts grocs i vermells al mapa.

Posi el ratolí al punt desitjat per veure el nom de l'estació.

Feu clic per veure les observacions i els pronòstics meteorològics.

Per canviar el mapa: feu clic els botons verds amb una creu de color negre per apropar; al botó verd amb un guió per allunyar la imatge; o en les fletxes verdes per a mapes adjacents.


METAR-TAF: